sensor_id;sensor_type;location;lat;lon;timestamp;P1;durP1;ratioP1;P2;durP2;ratioP2
69951;SDS011;60406;48.408;13.392;2024-02-21T00:01:49;5.75;;;3.15;;
69951;SDS011;60406;48.408;13.392;2024-02-21T00:06:50;7.93;;;2.85;;
69951;SDS011;60406;48.408;13.392;2024-02-21T00:11:50;6.63;;;2.60;;
69951;SDS011;60406;48.408;13.392;2024-02-21T00:16:51;5.30;;;2.55;;
69951;SDS011;60406;48.408;13.392;2024-02-21T00:21:52;7.88;;;2.90;;
69951;SDS011;60406;48.408;13.392;2024-02-21T00:26:53;8.52;;;2.70;;
69951;SDS011;60406;48.408;13.392;2024-02-21T00:31:54;9.50;;;3.25;;
69951;SDS011;60406;48.408;13.392;2024-02-21T00:36:55;8.85;;;2.60;;
69951;SDS011;60406;48.408;13.392;2024-02-21T00:41:56;9.30;;;3.05;;
69951;SDS011;60406;48.408;13.392;2024-02-21T00:46:57;8.00;;;2.85;;
69951;SDS011;60406;48.408;13.392;2024-02-21T00:51:57;8.13;;;2.50;;
69951;SDS011;60406;48.408;13.392;2024-02-21T00:56:58;3.42;;;2.25;;
69951;SDS011;60406;48.408;13.392;2024-02-21T01:01:59;3.28;;;2.08;;
69951;SDS011;60406;48.408;13.392;2024-02-21T01:07:00;9.60;;;2.50;;
69951;SDS011;60406;48.408;13.392;2024-02-21T01:12:26;7.38;;;3.15;;
69951;SDS011;60406;48.408;13.392;2024-02-21T01:17:26;9.82;;;2.60;;
69951;SDS011;60406;48.408;13.392;2024-02-21T01:22:27;5.78;;;2.95;;
69951;SDS011;60406;48.408;13.392;2024-02-21T01:27:28;5.78;;;2.85;;
69951;SDS011;60406;48.408;13.392;2024-02-21T01:32:29;8.05;;;2.78;;
69951;SDS011;60406;48.408;13.392;2024-02-21T01:37:30;8.02;;;2.42;;
69951;SDS011;60406;48.408;13.392;2024-02-21T01:42:31;6.45;;;2.38;;
69951;SDS011;60406;48.408;13.392;2024-02-21T01:47:32;4.57;;;2.20;;
69951;SDS011;60406;48.408;13.392;2024-02-21T01:52:33;7.43;;;2.20;;
69951;SDS011;60406;48.408;13.392;2024-02-21T01:57:34;4.00;;;2.42;;
69951;SDS011;60406;48.408;13.392;2024-02-21T02:02:35;4.00;;;2.67;;
69951;SDS011;60406;48.408;13.392;2024-02-21T02:07:36;5.97;;;2.10;;
69951;SDS011;60406;48.408;13.392;2024-02-21T02:12:37;4.93;;;2.28;;
69951;SDS011;60406;48.408;13.392;2024-02-21T02:17:38;7.55;;;2.03;;
69951;SDS011;60406;48.408;13.392;2024-02-21T02:22:39;5.75;;;1.77;;
69951;SDS011;60406;48.408;13.392;2024-02-21T02:27:42;3.97;;;2.20;;
69951;SDS011;60406;48.408;13.392;2024-02-21T02:32:44;8.50;;;3.35;;
69951;SDS011;60406;48.408;13.392;2024-02-21T02:37:49;5.60;;;3.30;;
69951;SDS011;60406;48.408;13.392;2024-02-21T02:42:50;4.95;;;2.25;;
69951;SDS011;60406;48.408;13.392;2024-02-21T02:47:51;8.73;;;2.70;;
69951;SDS011;60406;48.408;13.392;2024-02-21T02:52:53;9.35;;;2.72;;
69951;SDS011;60406;48.408;13.392;2024-02-21T02:57:54;4.70;;;1.98;;
69951;SDS011;60406;48.408;13.392;2024-02-21T03:02:55;9.27;;;2.00;;
69951;SDS011;60406;48.408;13.392;2024-02-21T03:07:56;9.57;;;2.17;;
69951;SDS011;60406;48.408;13.392;2024-02-21T03:12:57;9.98;;;4.18;;
69951;SDS011;60406;48.408;13.392;2024-02-21T03:17:58;4.85;;;2.78;;
69951;SDS011;60406;48.408;13.392;2024-02-21T03:22:59;9.43;;;2.88;;
69951;SDS011;60406;48.408;13.392;2024-02-21T03:28:00;14.82;;;5.35;;
69951;SDS011;60406;48.408;13.392;2024-02-21T03:33:02;10.07;;;3.55;;
69951;SDS011;60406;48.408;13.392;2024-02-21T03:38:03;12.88;;;2.97;;
69951;SDS011;60406;48.408;13.392;2024-02-21T03:43:04;7.68;;;2.17;;
69951;SDS011;60406;48.408;13.392;2024-02-21T03:48:05;4.20;;;2.22;;
69951;SDS011;60406;48.408;13.392;2024-02-21T03:53:06;7.80;;;2.30;;
69951;SDS011;60406;48.408;13.392;2024-02-21T03:58:07;4.20;;;1.92;;
69951;SDS011;60406;48.408;13.392;2024-02-21T04:03:07;5.70;;;2.47;;
69951;SDS011;60406;48.408;13.392;2024-02-21T04:08:08;4.25;;;2.30;;
69951;SDS011;60406;48.408;13.392;2024-02-21T04:13:09;4.38;;;2.63;;
69951;SDS011;60406;48.408;13.392;2024-02-21T04:18:10;6.68;;;2.17;;
69951;SDS011;60406;48.408;13.392;2024-02-21T04:23:11;6.20;;;2.60;;
69951;SDS011;60406;48.408;13.392;2024-02-21T04:28:12;7.78;;;2.85;;
69951;SDS011;60406;48.408;13.392;2024-02-21T04:33:13;3.92;;;2.33;;
69951;SDS011;60406;48.408;13.392;2024-02-21T04:38:13;8.70;;;2.40;;
69951;SDS011;60406;48.408;13.392;2024-02-21T04:43:14;2.92;;;1.70;;
69951;SDS011;60406;48.408;13.392;2024-02-21T04:48:15;4.22;;;1.67;;
69951;SDS011;60406;48.408;13.392;2024-02-21T04:53:16;3.42;;;1.65;;
69951;SDS011;60406;48.408;13.392;2024-02-21T04:58:17;3.47;;;1.73;;
69951;SDS011;60406;48.408;13.392;2024-02-21T05:03:18;3.35;;;1.85;;
69951;SDS011;60406;48.408;13.392;2024-02-21T05:08:19;5.45;;;2.00;;
69951;SDS011;60406;48.408;13.392;2024-02-21T05:13:19;4.78;;;1.30;;
69951;SDS011;60406;48.408;13.392;2024-02-21T05:18:20;7.70;;;1.45;;
69951;SDS011;60406;48.408;13.392;2024-02-21T05:23:21;2.78;;;2.00;;
69951;SDS011;60406;48.408;13.392;2024-02-21T05:28:22;5.30;;;2.05;;
69951;SDS011;60406;48.408;13.392;2024-02-21T05:33:23;5.82;;;1.48;;
69951;SDS011;60406;48.408;13.392;2024-02-21T05:38:24;4.78;;;1.60;;
69951;SDS011;60406;48.408;13.392;2024-02-21T05:43:25;3.38;;;1.70;;
69951;SDS011;60406;48.408;13.392;2024-02-21T05:48:26;5.85;;;1.73;;
69951;SDS011;60406;48.408;13.392;2024-02-21T05:53:27;4.47;;;1.50;;
69951;SDS011;60406;48.408;13.392;2024-02-21T05:58:27;3.42;;;1.67;;
69951;SDS011;60406;48.408;13.392;2024-02-21T06:03:29;1.67;;;1.52;;
69951;SDS011;60406;48.408;13.392;2024-02-21T06:08:30;4.53;;;1.73;;
69951;SDS011;60406;48.408;13.392;2024-02-21T06:13:31;5.00;;;2.67;;
69951;SDS011;60406;48.408;13.392;2024-02-21T06:18:32;11.77;;;3.55;;
69951;SDS011;60406;48.408;13.392;2024-02-21T06:23:33;4.63;;;2.40;;
69951;SDS011;60406;48.408;13.392;2024-02-21T06:28:34;4.10;;;2.38;;
69951;SDS011;60406;48.408;13.392;2024-02-21T06:33:34;6.28;;;2.78;;
69951;SDS011;60406;48.408;13.392;2024-02-21T06:38:35;4.00;;;2.38;;
69951;SDS011;60406;48.408;13.392;2024-02-21T06:43:36;3.65;;;2.17;;
69951;SDS011;60406;48.408;13.392;2024-02-21T06:48:37;3.35;;;1.58;;
69951;SDS011;60406;48.408;13.392;2024-02-21T06:53:38;3.67;;;1.90;;
69951;SDS011;60406;48.408;13.392;2024-02-21T06:58:39;4.30;;;2.13;;
69951;SDS011;60406;48.408;13.392;2024-02-21T07:03:40;6.25;;;3.20;;
69951;SDS011;60406;48.408;13.392;2024-02-21T07:08:40;4.85;;;2.70;;
69951;SDS011;60406;48.408;13.392;2024-02-21T07:13:41;4.20;;;2.13;;
69951;SDS011;60406;48.408;13.392;2024-02-21T07:18:42;6.00;;;4.30;;
69951;SDS011;60406;48.408;13.392;2024-02-21T07:23:43;8.65;;;3.63;;
69951;SDS011;60406;48.408;13.392;2024-02-21T07:28:44;8.48;;;2.85;;
69951;SDS011;60406;48.408;13.392;2024-02-21T07:33:45;5.30;;;2.40;;
69951;SDS011;60406;48.408;13.392;2024-02-21T07:38:46;4.97;;;1.85;;
69951;SDS011;60406;48.408;13.392;2024-02-21T07:43:46;8.55;;;2.30;;
69951;SDS011;60406;48.408;13.392;2024-02-21T07:48:47;8.20;;;2.40;;
69951;SDS011;60406;48.408;13.392;2024-02-21T07:53:48;6.70;;;2.38;;
69951;SDS011;60406;48.408;13.392;2024-02-21T07:58:49;10.27;;;2.60;;
69951;SDS011;60406;48.408;13.392;2024-02-21T08:03:50;3.28;;;2.08;;
69951;SDS011;60406;48.408;13.392;2024-02-21T08:08:51;5.15;;;2.05;;
69951;SDS011;60406;48.408;13.392;2024-02-21T08:13:52;6.97;;;2.70;;
69951;SDS011;60406;48.408;13.392;2024-02-21T08:18:53;3.70;;;2.15;;
69951;SDS011;60406;48.408;13.392;2024-02-21T08:23:54;10.13;;;2.00;;
69951;SDS011;60406;48.408;13.392;2024-02-21T08:28:55;4.18;;;2.08;;
69951;SDS011;60406;48.408;13.392;2024-02-21T08:33:57;5.63;;;2.65;;
69951;SDS011;60406;48.408;13.392;2024-02-21T08:38:58;5.15;;;2.15;;
69951;SDS011;60406;48.408;13.392;2024-02-21T08:43:59;7.05;;;2.67;;
69951;SDS011;60406;48.408;13.392;2024-02-21T08:49:00;4.35;;;2.10;;
69951;SDS011;60406;48.408;13.392;2024-02-21T08:54:01;6.07;;;2.33;;
69951;SDS011;60406;48.408;13.392;2024-02-21T08:59:02;3.90;;;2.25;;
69951;SDS011;60406;48.408;13.392;2024-02-21T09:04:03;3.00;;;1.95;;
69951;SDS011;60406;48.408;13.392;2024-02-21T09:09:04;6.10;;;2.10;;
69951;SDS011;60406;48.408;13.392;2024-02-21T09:14:04;4.03;;;2.17;;
69951;SDS011;60406;48.408;13.392;2024-02-21T09:19:05;3.72;;;2.22;;
69951;SDS011;60406;48.408;13.392;2024-02-21T09:24:06;5.20;;;2.22;;
69951;SDS011;60406;48.408;13.392;2024-02-21T09:29:07;5.78;;;2.97;;
69951;SDS011;60406;48.408;13.392;2024-02-21T09:34:08;2.55;;;1.98;;
69951;SDS011;60406;48.408;13.392;2024-02-21T09:39:09;3.42;;;1.60;;
69951;SDS011;60406;48.408;13.392;2024-02-21T09:44:10;8.77;;;2.55;;
69951;SDS011;60406;48.408;13.392;2024-02-21T09:54:11;3.33;;;1.73;;
69951;SDS011;60406;48.408;13.392;2024-02-21T09:59:15;5.18;;;2.83;;
69951;SDS011;60406;48.408;13.392;2024-02-21T10:04:16;5.13;;;2.30;;
69951;SDS011;60406;48.408;13.392;2024-02-21T10:09:21;7.25;;;3.33;;
69951;SDS011;60406;48.408;13.392;2024-02-21T10:19:22;4.32;;;2.10;;
69951;SDS011;60406;48.408;13.392;2024-02-21T10:24:26;4.93;;;2.85;;
69951;SDS011;60406;48.408;13.392;2024-02-21T10:29:27;5.63;;;2.53;;
69951;SDS011;60406;48.408;13.392;2024-02-21T10:34:28;5.10;;;2.80;;
69951;SDS011;60406;48.408;13.392;2024-02-21T10:39:33;5.22;;;2.50;;
69951;SDS011;60406;48.408;13.392;2024-02-21T10:44:36;8.57;;;2.65;;
69951;SDS011;60406;48.408;13.392;2024-02-21T10:49:38;14.30;;;3.97;;
69951;SDS011;60406;48.408;13.392;2024-02-21T10:55:07;5.80;;;2.03;;
69951;SDS011;60406;48.408;13.392;2024-02-21T11:00:10;4.75;;;1.83;;
69951;SDS011;60406;48.408;13.392;2024-02-21T11:05:12;3.80;;;1.67;;
69951;SDS011;60406;48.408;13.392;2024-02-21T11:10:23;4.53;;;1.90;;
69951;SDS011;60406;48.408;13.392;2024-02-21T11:15:25;6.97;;;2.28;;
69951;SDS011;60406;48.408;13.392;2024-02-21T11:20:33;4.70;;;1.70;;
69951;SDS011;60406;48.408;13.392;2024-02-21T11:25:36;6.03;;;1.98;;
69951;SDS011;60406;48.408;13.392;2024-02-21T11:30:37;1.40;;;1.25;;
69951;SDS011;60406;48.408;13.392;2024-02-21T11:35:38;3.55;;;1.50;;
69951;SDS011;60406;48.408;13.392;2024-02-21T11:41:03;4.93;;;1.45;;
69951;SDS011;60406;48.408;13.392;2024-02-21T11:46:08;4.60;;;1.52;;
69951;SDS011;60406;48.408;13.392;2024-02-21T11:51:09;5.05;;;1.60;;
69951;SDS011;60406;48.408;13.392;2024-02-21T11:56:10;3.58;;;1.30;;
69951;SDS011;60406;48.408;13.392;2024-02-21T12:01:11;1.92;;;0.98;;
69951;SDS011;60406;48.408;13.392;2024-02-21T12:06:12;2.55;;;1.10;;
69951;SDS011;60406;48.408;13.392;2024-02-21T12:11:31;2.47;;;1.08;;
69951;SDS011;60406;48.408;13.392;2024-02-21T12:16:32;3.03;;;1.83;;
69951;SDS011;60406;48.408;13.392;2024-02-21T12:21:33;4.47;;;1.70;;
69951;SDS011;60406;48.408;13.392;2024-02-21T12:26:34;1.58;;;0.73;;
69951;SDS011;60406;48.408;13.392;2024-02-21T12:31:36;2.33;;;1.08;;
69951;SDS011;60406;48.408;13.392;2024-02-21T12:36:44;2.13;;;0.80;;
69951;SDS011;60406;48.408;13.392;2024-02-21T12:41:46;2.17;;;0.98;;
69951;SDS011;60406;48.408;13.392;2024-02-21T12:46:46;3.47;;;1.15;;
69951;SDS011;60406;48.408;13.392;2024-02-21T12:51:47;4.38;;;1.60;;
69951;SDS011;60406;48.408;13.392;2024-02-21T12:56:48;15.85;;;1.80;;
69951;SDS011;60406;48.408;13.392;2024-02-21T13:01:49;2.08;;;0.90;;
69951;SDS011;60406;48.408;13.392;2024-02-21T13:06:50;3.45;;;1.67;;
69951;SDS011;60406;48.408;13.392;2024-02-21T13:11:51;2.50;;;1.30;;
69951;SDS011;60406;48.408;13.392;2024-02-21T13:16:52;3.10;;;1.10;;
69951;SDS011;60406;48.408;13.392;2024-02-21T13:21:52;4.30;;;0.95;;
69951;SDS011;60406;48.408;13.392;2024-02-21T13:26:53;3.03;;;1.08;;
69951;SDS011;60406;48.408;13.392;2024-02-21T13:31:54;6.82;;;3.08;;
69951;SDS011;60406;48.408;13.392;2024-02-21T13:36:55;8.95;;;4.22;;
69951;SDS011;60406;48.408;13.392;2024-02-21T13:41:56;3.08;;;1.20;;
69951;SDS011;60406;48.408;13.392;2024-02-21T13:46:57;2.28;;;1.15;;
69951;SDS011;60406;48.408;13.392;2024-02-21T13:51:58;4.90;;;2.25;;
69951;SDS011;60406;48.408;13.392;2024-02-21T13:56:59;2.33;;;1.00;;
69951;SDS011;60406;48.408;13.392;2024-02-21T14:02:00;2.10;;;0.90;;
69951;SDS011;60406;48.408;13.392;2024-02-21T14:07:01;2.00;;;0.90;;
69951;SDS011;60406;48.408;13.392;2024-02-21T14:12:02;2.80;;;1.00;;
69951;SDS011;60406;48.408;13.392;2024-02-21T14:17:03;2.30;;;1.23;;
69951;SDS011;60406;48.408;13.392;2024-02-21T14:22:04;2.03;;;0.80;;
69951;SDS011;60406;48.408;13.392;2024-02-21T14:27:04;1.75;;;0.90;;
69951;SDS011;60406;48.408;13.392;2024-02-21T14:32:05;4.05;;;1.08;;
69951;SDS011;60406;48.408;13.392;2024-02-21T14:37:06;2.88;;;1.88;;
69951;SDS011;60406;48.408;13.392;2024-02-21T14:42:07;3.08;;;1.35;;
69951;SDS011;60406;48.408;13.392;2024-02-21T14:47:08;5.18;;;2.75;;
69951;SDS011;60406;48.408;13.392;2024-02-21T14:52:09;4.32;;;1.27;;
69951;SDS011;60406;48.408;13.392;2024-02-21T14:57:10;6.60;;;3.20;;
69951;SDS011;60406;48.408;13.392;2024-02-21T15:02:10;2.20;;;1.10;;
69951;SDS011;60406;48.408;13.392;2024-02-21T15:07:11;3.30;;;1.23;;
69951;SDS011;60406;48.408;13.392;2024-02-21T15:12:12;2.08;;;0.93;;
69951;SDS011;60406;48.408;13.392;2024-02-21T15:17:13;1.88;;;1.30;;
69951;SDS011;60406;48.408;13.392;2024-02-21T15:22:14;2.88;;;1.10;;
69951;SDS011;60406;48.408;13.392;2024-02-21T15:27:15;2.55;;;1.13;;
69951;SDS011;60406;48.408;13.392;2024-02-21T15:32:16;2.85;;;0.90;;
69951;SDS011;60406;48.408;13.392;2024-02-21T15:37:17;1.35;;;1.08;;
69951;SDS011;60406;48.408;13.392;2024-02-21T15:42:17;0.88;;;0.52;;
69951;SDS011;60406;48.408;13.392;2024-02-21T15:47:18;3.10;;;0.85;;
69951;SDS011;60406;48.408;13.392;2024-02-21T15:52:19;2.55;;;1.00;;
69951;SDS011;60406;48.408;13.392;2024-02-21T15:57:20;1.90;;;1.05;;
69951;SDS011;60406;48.408;13.392;2024-02-21T16:02:21;2.80;;;1.10;;
69951;SDS011;60406;48.408;13.392;2024-02-21T16:07:22;1.75;;;1.00;;
69951;SDS011;60406;48.408;13.392;2024-02-21T16:12:23;3.97;;;2.53;;
69951;SDS011;60406;48.408;13.392;2024-02-21T16:17:23;11.52;;;5.80;;
69951;SDS011;60406;48.408;13.392;2024-02-21T16:22:24;18.95;;;7.47;;
69951;SDS011;60406;48.408;13.392;2024-02-21T16:27:25;9.00;;;5.43;;
69951;SDS011;60406;48.408;13.392;2024-02-21T16:32:26;3.38;;;1.80;;
69951;SDS011;60406;48.408;13.392;2024-02-21T16:37:27;2.92;;;1.83;;
69951;SDS011;60406;48.408;13.392;2024-02-21T16:42:28;8.63;;;4.50;;
69951;SDS011;60406;48.408;13.392;2024-02-21T16:47:29;12.68;;;7.93;;
69951;SDS011;60406;48.408;13.392;2024-02-21T16:52:29;8.45;;;4.47;;
69951;SDS011;60406;48.408;13.392;2024-02-21T16:57:30;4.80;;;3.10;;
69951;SDS011;60406;48.408;13.392;2024-02-21T17:02:31;7.00;;;3.30;;
69951;SDS011;60406;48.408;13.392;2024-02-21T17:07:32;7.15;;;3.65;;
69951;SDS011;60406;48.408;13.392;2024-02-21T17:12:33;13.60;;;7.53;;
69951;SDS011;60406;48.408;13.392;2024-02-21T17:17:34;17.25;;;7.25;;
69951;SDS011;60406;48.408;13.392;2024-02-21T17:22:35;8.60;;;4.93;;
69951;SDS011;60406;48.408;13.392;2024-02-21T17:27:36;5.78;;;4.03;;
69951;SDS011;60406;48.408;13.392;2024-02-21T17:32:37;6.78;;;3.17;;
69951;SDS011;60406;48.408;13.392;2024-02-21T17:37:38;7.57;;;3.90;;
69951;SDS011;60406;48.408;13.392;2024-02-21T17:42:39;6.53;;;2.92;;
69951;SDS011;60406;48.408;13.392;2024-02-21T17:47:40;5.30;;;3.33;;
69951;SDS011;60406;48.408;13.392;2024-02-21T17:52:40;6.75;;;4.63;;
69951;SDS011;60406;48.408;13.392;2024-02-21T17:57:41;10.75;;;7.25;;
69951;SDS011;60406;48.408;13.392;2024-02-21T18:02:42;13.45;;;7.72;;
69951;SDS011;60406;48.408;13.392;2024-02-21T18:07:43;29.85;;;13.75;;
69951;SDS011;60406;48.408;13.392;2024-02-21T18:12:44;32.30;;;17.77;;
69951;SDS011;60406;48.408;13.392;2024-02-21T18:17:45;29.30;;;14.73;;
69951;SDS011;60406;48.408;13.392;2024-02-21T18:22:46;23.25;;;12.57;;
69951;SDS011;60406;48.408;13.392;2024-02-21T18:27:46;15.98;;;9.43;;
69951;SDS011;60406;48.408;13.392;2024-02-21T18:32:47;15.15;;;8.27;;
69951;SDS011;60406;48.408;13.392;2024-02-21T18:37:48;9.63;;;5.47;;
69951;SDS011;60406;48.408;13.392;2024-02-21T18:42:49;9.68;;;5.28;;
69951;SDS011;60406;48.408;13.392;2024-02-21T18:47:50;9.07;;;3.55;;
69951;SDS011;60406;48.408;13.392;2024-02-21T18:52:51;20.27;;;8.55;;
69951;SDS011;60406;48.408;13.392;2024-02-21T18:57:52;12.15;;;3.92;;
69951;SDS011;60406;48.408;13.392;2024-02-21T19:02:53;5.55;;;3.90;;
69951;SDS011;60406;48.408;13.392;2024-02-21T19:07:54;5.95;;;3.97;;
69951;SDS011;60406;48.408;13.392;2024-02-21T19:12:55;7.22;;;4.38;;
69951;SDS011;60406;48.408;13.392;2024-02-21T19:17:55;8.07;;;4.63;;
69951;SDS011;60406;48.408;13.392;2024-02-21T19:22:56;8.45;;;3.25;;
69951;SDS011;60406;48.408;13.392;2024-02-21T19:27:57;6.78;;;3.80;;
69951;SDS011;60406;48.408;13.392;2024-02-21T19:32:58;7.72;;;3.30;;
69951;SDS011;60406;48.408;13.392;2024-02-21T19:37:59;6.72;;;3.67;;
69951;SDS011;60406;48.408;13.392;2024-02-21T19:43:00;6.22;;;3.65;;
69951;SDS011;60406;48.408;13.392;2024-02-21T19:48:01;11.68;;;5.85;;
69951;SDS011;60406;48.408;13.392;2024-02-21T19:53:02;16.02;;;8.05;;
69951;SDS011;60406;48.408;13.392;2024-02-21T19:58:03;11.10;;;6.38;;
69951;SDS011;60406;48.408;13.392;2024-02-21T20:03:04;22.83;;;17.10;;
69951;SDS011;60406;48.408;13.392;2024-02-21T20:08:05;36.08;;;21.52;;
69951;SDS011;60406;48.408;13.392;2024-02-21T20:13:06;26.77;;;16.13;;
69951;SDS011;60406;48.408;13.392;2024-02-21T20:18:07;9.88;;;6.07;;
69951;SDS011;60406;48.408;13.392;2024-02-21T20:23:08;32.50;;;16.35;;
69951;SDS011;60406;48.408;13.392;2024-02-21T20:28:09;53.35;;;27.98;;
69951;SDS011;60406;48.408;13.392;2024-02-21T20:33:09;21.23;;;11.68;;
69951;SDS011;60406;48.408;13.392;2024-02-21T20:38:10;16.17;;;7.57;;
69951;SDS011;60406;48.408;13.392;2024-02-21T20:43:11;10.15;;;7.28;;
69951;SDS011;60406;48.408;13.392;2024-02-21T20:48:12;12.02;;;5.35;;
69951;SDS011;60406;48.408;13.392;2024-02-21T20:53:13;7.97;;;4.25;;
69951;SDS011;60406;48.408;13.392;2024-02-21T20:58:14;9.68;;;4.15;;
69951;SDS011;60406;48.408;13.392;2024-02-21T21:03:15;14.90;;;6.03;;
69951;SDS011;60406;48.408;13.392;2024-02-21T21:08:16;14.32;;;5.50;;
69951;SDS011;60406;48.408;13.392;2024-02-21T21:13:16;13.52;;;5.85;;
69951;SDS011;60406;48.408;13.392;2024-02-21T21:18:17;5.65;;;4.10;;
69951;SDS011;60406;48.408;13.392;2024-02-21T21:23:18;5.05;;;3.50;;
69951;SDS011;60406;48.408;13.392;2024-02-21T21:28:19;10.02;;;4.07;;
69951;SDS011;60406;48.408;13.392;2024-02-21T21:33:20;10.15;;;4.45;;
69951;SDS011;60406;48.408;13.392;2024-02-21T21:38:21;7.70;;;4.53;;
69951;SDS011;60406;48.408;13.392;2024-02-21T21:43:22;8.93;;;4.50;;
69951;SDS011;60406;48.408;13.392;2024-02-21T21:48:23;11.98;;;4.30;;
69951;SDS011;60406;48.408;13.392;2024-02-21T21:53:23;8.65;;;3.90;;
69951;SDS011;60406;48.408;13.392;2024-02-21T21:58:24;12.68;;;6.65;;
69951;SDS011;60406;48.408;13.392;2024-02-21T22:03:25;7.85;;;4.32;;
69951;SDS011;60406;48.408;13.392;2024-02-21T22:08:26;8.95;;;4.30;;
69951;SDS011;60406;48.408;13.392;2024-02-21T22:13:27;9.50;;;4.90;;
69951;SDS011;60406;48.408;13.392;2024-02-21T22:18:28;7.20;;;4.97;;
69951;SDS011;60406;48.408;13.392;2024-02-21T22:23:29;13.57;;;6.18;;
69951;SDS011;60406;48.408;13.392;2024-02-21T22:28:30;17.08;;;6.20;;
69951;SDS011;60406;48.408;13.392;2024-02-21T22:33:30;17.63;;;6.57;;
69951;SDS011;60406;48.408;13.392;2024-02-21T22:38:31;10.27;;;5.40;;
69951;SDS011;60406;48.408;13.392;2024-02-21T22:43:32;12.30;;;4.78;;
69951;SDS011;60406;48.408;13.392;2024-02-21T22:48:33;14.25;;;4.85;;
69951;SDS011;60406;48.408;13.392;2024-02-21T22:53:34;8.75;;;4.28;;
69951;SDS011;60406;48.408;13.392;2024-02-21T22:58:35;10.38;;;5.78;;
69951;SDS011;60406;48.408;13.392;2024-02-21T23:03:36;11.98;;;5.30;;
69951;SDS011;60406;48.408;13.392;2024-02-21T23:08:38;10.80;;;5.18;;
69951;SDS011;60406;48.408;13.392;2024-02-21T23:13:38;8.25;;;4.60;;
69951;SDS011;60406;48.408;13.392;2024-02-21T23:18:39;8.60;;;5.20;;
69951;SDS011;60406;48.408;13.392;2024-02-21T23:23:40;9.55;;;4.75;;
69951;SDS011;60406;48.408;13.392;2024-02-21T23:28:44;11.60;;;5.05;;
69951;SDS011;60406;48.408;13.392;2024-02-21T23:33:45;13.45;;;4.72;;
69951;SDS011;60406;48.408;13.392;2024-02-21T23:38:46;6.57;;;4.55;;
69951;SDS011;60406;48.408;13.392;2024-02-21T23:43:47;8.07;;;4.70;;
69951;SDS011;60406;48.408;13.392;2024-02-21T23:48:48;9.20;;;4.07;;
69951;SDS011;60406;48.408;13.392;2024-02-21T23:53:48;10.90;;;4.95;;
69951;SDS011;60406;48.408;13.392;2024-02-21T23:58:49;8.43;;;5.05;;
